createdAt,value
2018-06-16T00:00:59.142Z,100366.64
2018-06-16T00:03:28.192Z,100370.50
2018-06-16T00:05:57.161Z,100361.89
2018-06-16T00:08:26.183Z,100367.51
2018-06-16T00:10:55.163Z,100364.28
2018-06-16T00:13:24.193Z,100358.32
2018-06-16T00:15:53.188Z,100362.16
2018-06-16T00:18:22.190Z,100364.55
2018-06-16T00:20:51.149Z,100364.56
2018-06-16T00:23:20.182Z,100365.09
2018-06-16T00:25:49.164Z,100359.51
2018-06-16T00:28:18.163Z,100359.13
2018-06-16T00:30:47.119Z,100354.48
2018-06-16T00:33:16.155Z,100349.25
2018-06-16T00:35:45.111Z,100345.42
2018-06-16T00:38:14.137Z,100344.71
2018-06-16T00:40:43.154Z,100344.47
2018-06-16T00:43:12.184Z,100351.09
2018-06-16T00:45:41.231Z,100347.55
2018-06-16T00:48:10.222Z,100344.66
2018-06-16T00:50:39.262Z,100344.53
2018-06-16T00:53:08.274Z,100345.17
2018-06-16T00:55:37.313Z,100349.75
2018-06-16T00:58:06.279Z,100342.59
2018-06-16T01:00:35.316Z,100338.81
2018-06-16T01:03:04.323Z,100338.14
2018-06-16T01:05:33.354Z,100337.14
2018-06-16T01:08:02.354Z,100344.02
2018-06-16T01:10:31.358Z,100340.99
2018-06-16T01:13:01.238Z,100331.20
2018-06-16T01:15:30.281Z,100328.87
2018-06-16T01:17:59.353Z,100333.72
2018-06-16T01:20:28.392Z,100335.39
2018-06-16T01:22:57.374Z,100334.55
2018-06-16T01:25:26.402Z,100335.50
2018-06-16T01:27:55.384Z,100328.11
2018-06-16T01:30:24.389Z,100325.45
2018-06-16T01:32:53.373Z,100321.74
2018-06-16T01:35:22.375Z,100321.63
2018-06-16T01:37:57.666Z,100319.96
2018-06-16T01:40:26.702Z,100318.09
2018-06-16T01:42:55.680Z,100315.75
2018-06-16T01:45:24.755Z,100317.33
2018-06-16T01:47:53.762Z,100316.35
2018-06-16T01:50:22.803Z,100316.98
2018-06-16T01:52:51.790Z,100323.86
2018-06-16T01:55:20.834Z,100319.19
2018-06-16T01:57:49.805Z,100317.58
2018-06-16T02:00:18.843Z,100318.93
2018-06-16T02:02:47.802Z,100317.84
2018-06-16T02:05:16.849Z,100318.98
2018-06-16T02:07:45.809Z,100320.87
2018-06-16T02:10:14.823Z,100324.92
2018-06-16T02:12:43.809Z,100319.89
2018-06-16T02:15:12.875Z,100316.69
2018-06-16T02:17:41.858Z,100327.03
2018-06-16T02:20:10.910Z,100322.84
2018-06-16T02:22:39.918Z,100320.41
2018-06-16T02:25:08.943Z,100320.85
2018-06-16T02:27:37.878Z,100317.45
2018-06-16T02:30:06.934Z,100317.73
2018-06-16T02:32:35.991Z,100321.70
2018-06-16T02:35:04.995Z,100316.73
2018-06-16T02:37:33.957Z,100311.08
2018-06-16T02:40:02.930Z,100315.71
2018-06-16T02:42:31.874Z,100317.91
2018-06-16T02:45:00.910Z,100315.07
2018-06-16T02:47:29.889Z,100315.84
2018-06-16T02:49:58.874Z,100316.89
2018-06-16T02:52:27.796Z,100318.87
2018-06-16T02:54:56.802Z,100319.20
2018-06-16T02:57:25.765Z,100318.73
2018-06-16T02:59:54.753Z,100321.95
2018-06-16T03:02:23.726Z,100324.34
2018-06-16T03:04:52.703Z,100325.89
2018-06-16T03:07:21.661Z,100319.20
2018-06-16T03:09:50.728Z,100323.06
2018-06-16T03:12:19.685Z,100312.17
2018-06-16T03:14:48.675Z,100310.94
2018-06-16T03:17:17.591Z,100314.63
2018-06-16T03:19:46.602Z,100302.45
2018-06-16T03:22:15.590Z,100305.58
2018-06-16T03:24:44.561Z,100304.14
2018-06-16T03:27:13.510Z,100314.48
2018-06-16T03:29:42.486Z,100318.73
2018-06-16T03:32:11.453Z,100316.63
2018-06-16T03:34:40.505Z,100319.16
2018-06-16T03:37:09.443Z,100323.06
2018-06-16T03:39:38.463Z,100327.60
2018-06-16T03:42:07.401Z,100325.96
2018-06-16T03:44:36.363Z,100322.61
2018-06-16T03:47:05.362Z,100327.34
2018-06-16T03:49:34.331Z,100324.77
2018-06-16T03:52:03.315Z,100323.16
2018-06-16T03:54:32.262Z,100313.64
2018-06-16T03:57:01.280Z,100316.73
2018-06-16T03:59:30.294Z,100324.45
2018-06-16T04:01:59.299Z,100317.72
2018-06-16T04:04:28.272Z,100322.27
2018-06-16T04:06:57.242Z,100315.97
2018-06-16T04:09:26.211Z,100321.69
2018-06-16T04:11:55.178Z,100318.92
2018-06-16T04:14:24.110Z,100319.59
2018-06-16T04:16:53.094Z,100315.79
2018-06-16T04:19:22.014Z,100312.83
2018-06-16T04:21:51.014Z,100313.72
2018-06-16T04:24:19.987Z,100314.57
2018-06-16T04:26:49.026Z,100317.97
2018-06-16T04:29:17.970Z,100319.91
2018-06-16T04:31:46.963Z,100323.49
2018-06-16T04:34:15.944Z,100325.84
2018-06-16T04:36:44.934Z,100332.81
2018-06-16T04:39:13.871Z,100324.55
2018-06-16T04:41:42.887Z,100324.48
2018-06-16T04:44:11.809Z,100325.88
2018-06-16T04:46:40.830Z,100322.74
2018-06-16T04:49:09.937Z,100330.61
2018-06-16T04:51:38.881Z,100325.63
2018-06-16T04:54:07.862Z,100332.91
2018-06-16T04:56:36.873Z,100334.38
2018-06-16T04:59:05.859Z,100332.40
2018-06-16T05:01:35.180Z,100335.22
2018-06-16T05:04:04.132Z,100325.05
2018-06-16T05:06:33.106Z,100329.75
2018-06-16T05:09:02.057Z,100333.11
2018-06-16T05:11:31.062Z,100336.39
2018-06-16T05:13:59.983Z,100331.61
2018-06-16T05:16:28.973Z,100326.56
2018-06-16T05:18:57.965Z,100324.70
2018-06-16T05:21:26.947Z,100322.09
2018-06-16T05:23:55.921Z,100321.12
2018-06-16T05:26:24.893Z,100321.99
2018-06-16T05:28:53.871Z,100323.23
2018-06-16T05:31:22.870Z,100328.81
2018-06-16T05:33:52.050Z,100328.50
2018-06-16T05:36:21.407Z,100323.19
2018-06-16T05:38:50.553Z,100325.27
2018-06-16T05:41:19.579Z,100327.89
2018-06-16T05:43:48.578Z,100329.14
2018-06-16T05:46:17.589Z,100334.70
2018-06-16T05:48:46.553Z,100340.03
2018-06-16T05:51:15.535Z,100338.39
2018-06-16T05:53:44.470Z,100343.55
2018-06-16T05:56:13.447Z,100334.19
2018-06-16T05:58:42.381Z,100340.51
2018-06-16T06:01:11.386Z,100334.21
2018-06-16T06:03:40.474Z,100341.46
2018-06-16T06:06:09.443Z,100339.39
2018-06-16T06:08:38.395Z,100345.59
2018-06-16T06:11:07.376Z,100342.50
2018-06-16T06:13:36.379Z,100349.84
2018-06-16T06:16:05.362Z,100349.81
2018-06-16T06:18:34.326Z,100349.72
2018-06-16T06:21:03.335Z,100349.19
2018-06-16T06:23:32.302Z,100344.61
2018-06-16T06:26:01.297Z,100355.05
2018-06-16T06:28:30.253Z,100358.09
2018-06-16T06:30:59.245Z,100359.02
2018-06-16T06:33:28.166Z,100358.70
2018-06-16T06:35:57.444Z,100361.92
2018-06-16T06:38:26.378Z,100366.16
2018-06-16T06:40:55.402Z,100361.52
2018-06-16T06:43:24.424Z,100363.35
2018-06-16T06:45:53.466Z,100367.72
2018-06-16T06:48:22.411Z,100363.38
2018-06-16T06:50:51.401Z,100355.84
2018-06-16T06:53:20.414Z,100359.02
2018-06-16T06:55:49.363Z,100358.59
2018-06-16T06:58:18.365Z,100355.61
2018-06-16T07:00:47.477Z,100356.80
2018-06-16T07:03:16.446Z,100351.49
2018-06-16T07:05:45.389Z,100352.45
2018-06-16T07:08:14.385Z,100353.49
2018-06-16T07:10:43.357Z,100353.67
2018-06-16T07:13:12.348Z,100353.63
2018-06-16T07:15:41.296Z,100357.71
2018-06-16T07:18:10.279Z,100364.00
2018-06-16T07:20:39.231Z,100363.41
2018-06-16T07:23:08.229Z,100366.86
2018-06-16T07:25:37.267Z,100358.96
2018-06-16T07:28:06.256Z,100364.77
2018-06-16T07:30:35.230Z,100378.34
2018-06-16T07:33:04.222Z,100370.39
2018-06-16T07:35:33.164Z,100374.45
2018-06-16T07:38:02.186Z,100370.30
2018-06-16T07:40:31.134Z,100372.30
2018-06-16T07:43:00.104Z,100369.33
2018-06-16T07:45:29.042Z,100362.09
2018-06-16T07:47:58.026Z,100359.61
2018-06-16T07:50:26.994Z,100356.59
2018-06-16T07:52:55.986Z,100354.79
2018-06-16T07:55:24.926Z,100359.01
2018-06-16T07:57:53.977Z,100359.87
2018-06-16T08:00:22.930Z,100359.79
2018-06-16T08:02:51.951Z,100353.27
2018-06-16T08:05:20.945Z,100351.42
2018-06-16T08:07:49.935Z,100356.16
2018-06-16T08:10:19.073Z,100355.25
2018-06-16T08:12:48.119Z,100351.80
2018-06-16T08:15:17.056Z,100356.61
2018-06-16T08:17:46.055Z,100348.56
2018-06-16T08:20:15.060Z,100346.52
2018-06-16T08:22:44.037Z,100353.50
2018-06-16T08:25:12.984Z,100350.19
2018-06-16T08:27:41.974Z,100347.03
2018-06-16T08:30:10.950Z,100345.87
2018-06-16T08:32:39.968Z,100342.55
2018-06-16T08:35:08.956Z,100345.88
2018-06-16T08:37:37.979Z,100350.59
2018-06-16T08:40:06.957Z,100342.23
2018-06-16T08:42:35.976Z,100336.91
2018-06-16T08:45:05.028Z,100348.48
2018-06-16T08:47:34.031Z,100345.71
2018-06-16T08:50:03.116Z,100342.69
2018-06-16T08:52:32.140Z,100347.48
2018-06-16T08:55:01.126Z,100354.21
2018-06-16T08:57:30.138Z,100354.27
2018-06-16T08:59:59.059Z,100359.42
2018-06-16T09:02:28.094Z,100362.16
2018-06-16T09:04:57.230Z,100347.75
2018-06-16T09:07:26.266Z,100346.16
2018-06-16T09:09:55.575Z,100349.44
2018-06-16T09:12:24.616Z,100356.19
2018-06-16T09:14:53.598Z,100352.26
2018-06-16T09:17:22.651Z,100353.88
2018-06-16T09:19:51.652Z,100354.84
2018-06-16T09:22:20.666Z,100360.56
2018-06-16T09:24:49.816Z,100357.70
2018-06-16T09:27:18.840Z,100350.88
2018-06-16T09:29:47.818Z,100351.91
2018-06-16T09:32:16.832Z,100361.30
2018-06-16T09:34:45.826Z,100359.30
2018-06-16T09:37:14.817Z,100350.16
2018-06-16T09:39:43.814Z,100345.88
2018-06-16T09:42:12.809Z,100341.98
2018-06-16T09:44:41.826Z,100347.64
2018-06-16T09:47:10.779Z,100337.62
2018-06-16T09:49:39.776Z,100340.11
2018-06-16T09:52:08.768Z,100342.55
2018-06-16T09:54:37.787Z,100333.94
2018-06-16T09:57:06.756Z,100327.80
2018-06-16T09:59:35.785Z,100333.30
2018-06-16T10:02:04.734Z,100330.39
2018-06-16T10:04:33.737Z,100328.63
2018-06-16T10:07:02.722Z,100328.70
2018-06-16T10:09:31.724Z,100323.46
2018-06-16T10:12:00.665Z,100328.80
2018-06-16T10:14:29.778Z,100326.38
2018-06-16T10:16:58.730Z,100320.00
2018-06-16T10:19:27.732Z,100315.86
2018-06-16T10:21:56.707Z,100318.73
2018-06-16T10:24:25.719Z,100310.09
2018-06-16T10:26:54.660Z,100307.92
2018-06-16T10:29:23.670Z,100299.48
2018-06-16T10:31:52.637Z,100297.92
2018-06-16T10:34:21.702Z,100300.14
2018-06-16T10:36:50.678Z,100297.63
2018-06-16T10:39:19.665Z,100296.02
2018-06-16T10:41:48.591Z,100292.34
2018-06-16T10:44:17.591Z,100289.07
2018-06-16T10:46:46.536Z,100281.76
2018-06-16T10:49:15.555Z,100284.91
2018-06-16T10:51:44.511Z,100289.41
2018-06-16T10:54:13.547Z,100286.61
2018-06-16T10:56:42.486Z,100302.42
2018-06-16T10:59:11.542Z,100294.46
2018-06-16T11:01:40.489Z,100284.00
2018-06-16T11:04:09.507Z,100273.50
2018-06-16T11:06:38.563Z,100277.75
2018-06-16T11:09:09.205Z,100278.91
2018-06-16T11:11:38.166Z,100280.78
2018-06-16T11:14:07.360Z,100275.38
2018-06-16T11:16:36.340Z,100277.64
2018-06-16T11:19:05.873Z,100272.75
2018-06-16T11:21:34.931Z,100282.31
2018-06-16T11:24:03.953Z,100276.55
2018-06-16T11:26:32.918Z,100267.98
2018-06-16T11:29:01.886Z,100276.17
2018-06-16T11:31:30.941Z,100270.39
2018-06-16T11:33:59.876Z,100269.17
2018-06-16T11:36:28.861Z,100265.95
2018-06-16T11:38:57.828Z,100259.66
2018-06-16T11:41:26.826Z,100263.15
2018-06-16T11:43:55.810Z,100264.48
2018-06-16T11:46:24.804Z,100254.98
2018-06-16T11:48:53.746Z,100259.13
2018-06-16T11:51:22.751Z,100251.62
2018-06-16T11:53:51.709Z,100247.60
2018-06-16T11:56:20.688Z,100248.80
2018-06-16T11:58:49.667Z,100241.86
2018-06-16T12:01:18.658Z,100242.64
2018-06-16T12:03:47.663Z,100245.52
2018-06-16T12:06:16.642Z,100238.70
2018-06-16T12:08:45.594Z,100239.75
2018-06-16T12:11:14.642Z,100233.14
2018-06-16T12:13:43.587Z,100234.61
2018-06-16T12:16:12.598Z,100229.02
2018-06-16T12:18:41.545Z,100229.36
2018-06-16T12:21:10.534Z,100224.89
2018-06-16T12:23:39.525Z,100227.17
2018-06-16T12:26:08.476Z,100224.81
2018-06-16T12:28:37.482Z,100222.04
2018-06-16T12:31:06.503Z,100230.22
2018-06-16T12:33:35.450Z,100219.31
2018-06-16T12:36:04.606Z,100220.28
2018-06-16T12:38:33.509Z,100212.44
2018-06-16T12:41:02.501Z,100211.82
2018-06-16T12:43:31.459Z,100211.80
2018-06-16T12:46:00.454Z,100215.37
2018-06-16T12:48:29.417Z,100210.98
2018-06-16T12:50:58.390Z,100207.01
2018-06-16T12:53:27.557Z,100205.31
2018-06-16T12:55:56.542Z,100209.87
2018-06-16T12:58:25.489Z,100211.77
2018-06-16T13:00:54.476Z,100204.53
2018-06-16T13:03:23.415Z,100199.63
2018-06-16T13:05:52.397Z,100200.09
2018-06-16T13:08:21.352Z,100199.54
2018-06-16T13:10:50.351Z,100196.06
2018-06-16T13:13:19.315Z,100200.44
2018-06-16T13:15:48.316Z,100192.75
2018-06-16T13:18:17.299Z,100193.11
2018-06-16T13:20:46.441Z,100192.10
2018-06-16T13:23:15.439Z,100191.73
2018-06-16T13:25:44.446Z,100188.04
2018-06-16T13:28:13.422Z,100189.30
2018-06-16T13:30:42.375Z,100178.39
2018-06-16T13:33:11.402Z,100182.22
2018-06-16T13:35:40.314Z,100171.94
2018-06-16T13:38:09.276Z,100169.80
2018-06-16T13:40:38.214Z,100160.06
2018-06-16T13:43:07.249Z,100166.59
2018-06-16T13:45:36.170Z,100167.13
2018-06-16T13:48:05.184Z,100167.55
2018-06-16T13:50:34.135Z,100167.07
2018-06-16T13:53:03.119Z,100165.66
2018-06-16T13:55:32.094Z,100167.74
2018-06-16T13:58:01.135Z,100166.09
2018-06-16T14:00:30.135Z,100160.01
2018-06-16T14:02:59.151Z,100165.48
2018-06-16T14:05:28.107Z,100165.89
2018-06-16T14:07:57.136Z,100159.84
2018-06-16T14:10:26.076Z,100164.99
2018-06-16T14:12:55.099Z,100164.62
2018-06-16T14:15:24.046Z,100163.19
2018-06-16T14:17:53.059Z,100167.43
2018-06-16T14:20:22.014Z,100162.92
2018-06-16T14:22:51.009Z,100165.55
2018-06-16T14:25:19.933Z,100165.82
2018-06-16T14:27:48.894Z,100167.50
2018-06-16T14:30:17.848Z,100168.94
2018-06-16T14:32:46.886Z,100167.69
2018-06-16T14:35:15.826Z,100167.52
2018-06-16T14:37:44.818Z,100161.09
2018-06-16T14:40:13.790Z,100162.77
2018-06-16T14:42:42.806Z,100163.31
2018-06-16T14:45:11.795Z,100165.78
2018-06-16T14:47:40.775Z,100157.73
2018-06-16T14:50:09.734Z,100156.99
2018-06-16T14:52:38.733Z,100150.44
2018-06-16T14:55:07.773Z,100152.58
2018-06-16T14:57:36.761Z,100161.47
2018-06-16T15:00:05.808Z,100155.20
2018-06-16T15:02:34.807Z,100154.55
2018-06-16T15:05:03.932Z,100148.84
2018-06-16T15:07:32.921Z,100154.07
2018-06-16T15:10:01.891Z,100149.07
2018-06-16T15:12:31.038Z,100146.25
2018-06-16T15:15:00.024Z,100144.88
2018-06-16T15:17:29.046Z,100143.19
2018-06-16T15:19:58.012Z,100131.63
2018-06-16T15:22:27.007Z,100139.06
2018-06-16T15:24:55.970Z,100134.44
2018-06-16T15:27:24.926Z,100140.80
2018-06-16T15:29:53.947Z,100135.97
2018-06-16T15:32:22.934Z,100133.73
2018-06-16T15:34:51.922Z,100133.81
2018-06-16T15:37:20.862Z,100137.62
2018-06-16T15:39:49.862Z,100134.65
2018-06-16T15:42:18.820Z,100127.50
2018-06-16T15:44:47.814Z,100121.96
2018-06-16T15:47:16.782Z,100119.30
2018-06-16T15:49:45.862Z,100122.64
2018-06-16T15:52:14.821Z,100119.59
2018-06-16T15:54:43.834Z,100121.83
2018-06-16T15:57:12.892Z,100124.53
2018-06-16T15:59:41.905Z,100116.02
2018-06-16T16:02:10.905Z,100111.34
2018-06-16T16:04:39.905Z,100113.47
2018-06-16T16:07:08.874Z,100118.23
2018-06-16T16:09:37.873Z,100110.19
2018-06-16T16:12:06.834Z,100107.39
2018-06-16T16:14:35.823Z,100100.59
2018-06-16T16:17:04.770Z,100093.23
2018-06-16T16:19:33.954Z,100092.98
2018-06-16T16:22:02.959Z,100098.22
2018-06-16T16:24:31.951Z,100096.68
2018-06-16T16:27:00.910Z,100096.90
2018-06-16T16:29:29.901Z,100092.18
2018-06-16T16:31:58.871Z,100094.30
2018-06-16T16:34:27.902Z,100092.55
2018-06-16T16:36:56.842Z,100094.87
2018-06-16T16:39:25.874Z,100094.78
2018-06-16T16:41:54.813Z,100087.72
2018-06-16T16:44:23.814Z,100086.88
2018-06-16T16:46:52.745Z,100090.20
2018-06-16T16:49:21.740Z,100078.89
2018-06-16T16:51:50.663Z,100087.08
2018-06-16T16:54:19.740Z,100084.22
2018-06-16T16:56:48.762Z,100091.09
2018-06-16T16:59:17.723Z,100090.52
2018-06-16T17:01:46.722Z,100089.95
2018-06-16T17:04:15.676Z,100090.42
2018-06-16T17:06:44.696Z,100084.50
2018-06-16T17:09:13.765Z,100090.39
2018-06-16T17:11:42.916Z,100092.92
2018-06-16T17:14:11.862Z,100088.13
2018-06-16T17:16:40.823Z,100090.20
2018-06-16T17:19:09.817Z,100085.34
2018-06-16T17:21:39.115Z,100082.83
2018-06-16T17:24:08.057Z,100085.28
2018-06-16T17:26:37.067Z,100085.22
2018-06-16T17:29:06.112Z,100079.50
2018-06-16T17:31:35.263Z,100079.70
2018-06-16T17:34:04.282Z,100085.04
2018-06-16T17:36:33.255Z,100084.26
2018-06-16T17:39:02.190Z,100087.73
2018-06-16T17:41:31.199Z,100084.11
2018-06-16T17:44:00.119Z,100084.65
2018-06-16T17:46:29.106Z,100086.80
2018-06-16T17:48:58.062Z,100086.34
2018-06-16T17:51:27.047Z,100080.66
2018-06-16T17:53:56.000Z,100087.73
2018-06-16T17:56:25.023Z,100086.09
2018-06-16T17:58:54.270Z,100080.04
2018-06-16T18:01:23.454Z,100079.28
2018-06-16T18:03:52.472Z,100083.94
2018-06-16T18:06:21.483Z,100085.38
2018-06-16T18:08:50.438Z,100089.95
2018-06-16T18:11:19.416Z,100084.20
2018-06-16T18:13:48.411Z,100087.20
2018-06-16T18:16:17.390Z,100090.62
2018-06-16T18:18:46.316Z,100087.37
2018-06-16T18:21:15.304Z,100090.59
2018-06-16T18:23:44.261Z,100091.48
2018-06-16T18:26:13.241Z,100095.52
2018-06-16T18:28:42.198Z,100093.19
2018-06-16T18:31:11.194Z,100091.80
2018-06-16T18:33:40.135Z,100094.57
2018-06-16T18:36:09.087Z,100098.05
2018-06-16T18:38:38.102Z,100099.55
2018-06-16T18:41:07.119Z,100097.79
2018-06-16T18:43:36.153Z,100096.61
2018-06-16T18:46:05.135Z,100096.59
2018-06-16T18:48:34.161Z,100092.03
2018-06-16T18:51:03.155Z,100099.23
2018-06-16T18:53:32.141Z,100100.95
2018-06-16T18:56:01.087Z,100100.34
2018-06-16T18:58:30.110Z,100099.98
2018-06-16T19:00:59.111Z,100105.16
2018-06-16T19:03:28.142Z,100110.91
2018-06-16T19:05:57.145Z,100110.81
2018-06-16T19:08:26.122Z,100110.16
2018-06-16T19:10:55.110Z,100116.17
2018-06-16T19:13:24.113Z,100116.67
2018-06-16T19:15:53.089Z,100111.73
2018-06-16T19:18:22.438Z,100112.52
2018-06-16T19:20:51.390Z,100112.31
2018-06-16T19:23:20.434Z,100112.38
2018-06-16T19:25:49.424Z,100111.50
2018-06-16T19:28:18.454Z,100112.25
2018-06-16T19:30:47.635Z,100109.47
2018-06-16T19:33:16.735Z,100112.98
2018-06-16T19:35:45.699Z,100118.45
2018-06-16T19:38:14.717Z,100122.97
2018-06-16T19:40:43.718Z,100121.20
2018-06-16T19:43:12.763Z,100128.55
2018-06-16T19:45:41.731Z,100129.98
2018-06-16T19:48:10.727Z,100138.63
2018-06-16T19:50:39.674Z,100140.45
2018-06-16T19:53:08.685Z,100140.71
2018-06-16T19:55:37.663Z,100143.16
2018-06-16T19:58:06.704Z,100146.52
2018-06-16T20:00:35.695Z,100143.83
2018-06-16T20:03:04.730Z,100147.42
2018-06-16T20:05:33.795Z,100145.63
2018-06-16T20:08:02.847Z,100152.57
2018-06-16T20:10:31.824Z,100162.27
2018-06-16T20:13:00.865Z,100163.32
2018-06-16T20:15:29.809Z,100161.88
2018-06-16T20:17:58.805Z,100171.58
2018-06-16T20:20:27.824Z,100165.29
2018-06-16T20:22:56.872Z,100169.22
2018-06-16T20:25:25.854Z,100177.64
2018-06-16T20:27:54.854Z,100175.98
2018-06-16T20:30:23.795Z,100187.60
2018-06-16T20:32:52.814Z,100174.72
2018-06-16T20:35:21.793Z,100186.44
2018-06-16T20:37:50.785Z,100185.83
2018-06-16T20:40:19.781Z,100190.97
2018-06-16T20:42:48.815Z,100188.55
2018-06-16T20:45:17.764Z,100196.74
2018-06-16T20:47:46.820Z,100187.49
2018-06-16T20:50:15.815Z,100191.56
2018-06-16T20:52:45.503Z,100193.99
2018-06-16T20:55:14.492Z,100189.41
2018-06-16T20:57:43.510Z,100196.81
2018-06-16T21:00:12.457Z,100195.80
2018-06-16T21:02:41.472Z,100192.14
2018-06-16T21:05:10.442Z,100190.34
2018-06-16T21:07:39.446Z,100189.48
2018-06-16T21:10:08.420Z,100192.83
2018-06-16T21:12:37.399Z,100189.48
2018-06-16T21:15:06.365Z,100206.05
2018-06-16T21:17:35.370Z,100201.19
2018-06-16T21:20:04.408Z,100205.06
2018-06-16T21:22:33.451Z,100199.30
2018-06-16T21:25:02.424Z,100201.35
2018-06-16T21:27:31.416Z,100197.28
2018-06-16T21:30:00.456Z,100207.70
2018-06-16T21:32:29.420Z,100208.17
2018-06-16T21:34:58.451Z,100202.05
2018-06-16T21:37:27.415Z,100210.95
2018-06-16T21:39:56.434Z,100211.25
2018-06-16T21:42:25.416Z,100212.36
2018-06-16T21:44:54.411Z,100215.70
2018-06-16T21:47:23.363Z,100219.10
2018-06-16T21:49:52.352Z,100219.08
2018-06-16T21:52:21.315Z,100224.19
2018-06-16T21:54:50.322Z,100221.38
2018-06-16T21:57:19.305Z,100222.82
2018-06-16T21:59:48.281Z,100229.01
2018-06-16T22:02:17.238Z,100229.51
2018-06-16T22:04:46.261Z,100224.85
2018-06-16T22:07:15.231Z,100224.98
2018-06-16T22:09:44.226Z,100225.70
2018-06-16T22:12:13.177Z,100228.62
2018-06-16T22:14:42.202Z,100224.44
2018-06-16T22:17:11.151Z,100231.92
2018-06-16T22:19:40.126Z,100229.12
2018-06-16T22:22:09.102Z,100241.20
2018-06-16T22:24:38.102Z,100242.86
2018-06-16T22:27:07.056Z,100239.80
2018-06-16T22:29:36.049Z,100240.41
2018-06-16T22:32:05.154Z,100246.84
2018-06-16T22:34:34.163Z,100245.48
2018-06-16T22:37:03.119Z,100253.72
2018-06-16T22:39:32.117Z,100257.45
2018-06-16T22:42:01.090Z,100256.75
2018-06-16T22:44:30.073Z,100263.36
2018-06-16T22:46:59.022Z,100269.93
2018-06-16T22:49:28.025Z,100268.14
2018-06-16T22:51:56.979Z,100266.48
2018-06-16T22:54:25.971Z,100274.09
2018-06-16T22:56:54.942Z,100274.77
2018-06-16T22:59:23.989Z,100267.04
2018-06-16T23:01:52.964Z,100270.92
2018-06-16T23:04:21.977Z,100274.16
2018-06-16T23:06:50.949Z,100269.78
2018-06-16T23:09:19.994Z,100276.67
2018-06-16T23:11:49.007Z,100263.20
2018-06-16T23:14:17.995Z,100266.63
2018-06-16T23:16:46.985Z,100265.56
2018-06-16T23:19:16.015Z,100260.55
2018-06-16T23:21:45.018Z,100256.67
2018-06-16T23:24:14.046Z,100258.66
2018-06-16T23:26:43.007Z,100265.19
2018-06-16T23:29:12.015Z,100264.28
2018-06-16T23:31:40.996Z,100263.97
2018-06-16T23:34:10.004Z,100258.48
2018-06-16T23:36:38.989Z,100259.66
2018-06-16T23:39:11.293Z,100264.34
2018-06-16T23:41:40.258Z,100272.20
2018-06-16T23:44:09.262Z,100266.05
2018-06-16T23:46:38.458Z,100266.42
2018-06-16T23:49:07.477Z,100272.31
2018-06-16T23:51:36.450Z,100271.72
2018-06-16T23:54:05.565Z,100277.59
2018-06-16T23:56:34.519Z,100279.65
2018-06-16T23:59:03.533Z,100281.37
